sensor_id;sensor_type;location;lat;lon;timestamp;temperature;humidity
54680;DHT22;40578;53.178;5.846;2023-05-29T00:02:07;9.80;99.90
54680;DHT22;40578;53.178;5.846;2023-05-29T00:04:33;9.80;99.90
54680;DHT22;40578;53.178;5.846;2023-05-29T00:06:58;9.80;99.90
54680;DHT22;40578;53.178;5.846;2023-05-29T00:09:24;9.70;99.90
54680;DHT22;40578;53.178;5.846;2023-05-29T00:11:50;9.70;99.90
54680;DHT22;40578;53.178;5.846;2023-05-29T00:14:21;9.80;99.90
54680;DHT22;40578;53.178;5.846;2023-05-29T00:16:48;9.60;99.90
54680;DHT22;40578;53.178;5.846;2023-05-29T00:19:14;9.60;99.90
54680;DHT22;40578;53.178;5.846;2023-05-29T00:21:42;9.60;99.90
54680;DHT22;40578;53.178;5.846;2023-05-29T00:24:08;9.60;99.90
54680;DHT22;40578;53.178;5.846;2023-05-29T00:26:33;9.50;99.90
54680;DHT22;40578;53.178;5.846;2023-05-29T00:28:59;9.50;99.90
54680;DHT22;40578;53.178;5.846;2023-05-29T00:31:25;9.50;99.90
54680;DHT22;40578;53.178;5.846;2023-05-29T00:33:50;9.50;99.90
54680;DHT22;40578;53.178;5.846;2023-05-29T00:36:16;9.50;99.90
54680;DHT22;40578;53.178;5.846;2023-05-29T00:38:42;9.50;99.90
54680;DHT22;40578;53.178;5.846;2023-05-29T00:41:12;9.50;99.90
54680;DHT22;40578;53.178;5.846;2023-05-29T00:43:38;11.20;99.90
54680;DHT22;40578;53.178;5.846;2023-05-29T00:46:04;9.40;99.90
54680;DHT22;40578;53.178;5.846;2023-05-29T00:48:29;9.40;99.90
54680;DHT22;40578;53.178;5.846;2023-05-29T00:50:55;9.40;99.90
54680;DHT22;40578;53.178;5.846;2023-05-29T00:53:22;9.40;99.90
54680;DHT22;40578;53.178;5.846;2023-05-29T00:55:48;9.40;99.90
54680;DHT22;40578;53.178;5.846;2023-05-29T00:58:14;10.40;99.90
54680;DHT22;40578;53.178;5.846;2023-05-29T01:00:40;9.40;99.90
54680;DHT22;40578;53.178;5.846;2023-05-29T01:03:06;9.40;99.90
54680;DHT22;40578;53.178;5.846;2023-05-29T01:05:34;9.40;99.90
54680;DHT22;40578;53.178;5.846;2023-05-29T01:08:02;9.40;99.90
54680;DHT22;40578;53.178;5.846;2023-05-29T01:10:28;9.40;99.90
54680;DHT22;40578;53.178;5.846;2023-05-29T01:15:33;9.40;99.90
54680;DHT22;40578;53.178;5.846;2023-05-29T01:18:08;9.40;99.90
54680;DHT22;40578;53.178;5.846;2023-05-29T01:21:06;9.50;99.90
54680;DHT22;40578;53.178;5.846;2023-05-29T01:23:52;9.40;99.90
54680;DHT22;40578;53.178;5.846;2023-05-29T01:29:26;9.50;99.90
54680;DHT22;40578;53.178;5.846;2023-05-29T01:31:54;9.50;99.90
54680;DHT22;40578;53.178;5.846;2023-05-29T01:34:20;9.60;99.90
54680;DHT22;40578;53.178;5.846;2023-05-29T01:36:46;9.50;99.90
54680;DHT22;40578;53.178;5.846;2023-05-29T01:39:12;9.60;99.90
54680;DHT22;40578;53.178;5.846;2023-05-29T01:41:38;9.60;99.90
54680;DHT22;40578;53.178;5.846;2023-05-29T01:44:06;9.50;99.90
54680;DHT22;40578;53.178;5.846;2023-05-29T01:46:42;9.60;99.90
54680;DHT22;40578;53.178;5.846;2023-05-29T01:49:09;9.50;99.90
54680;DHT22;40578;53.178;5.846;2023-05-29T01:51:35;10.70;99.90
54680;DHT22;40578;53.178;5.846;2023-05-29T01:54:01;9.50;99.90
54680;DHT22;40578;53.178;5.846;2023-05-29T01:56:28;9.50;99.90
54680;DHT22;40578;53.178;5.846;2023-05-29T01:58:56;9.40;99.90
54680;DHT22;40578;53.178;5.846;2023-05-29T02:01:22;9.40;99.90
54680;DHT22;40578;53.178;5.846;2023-05-29T02:03:47;9.40;99.90
54680;DHT22;40578;53.178;5.846;2023-05-29T02:06:13;9.50;99.90
54680;DHT22;40578;53.178;5.846;2023-05-29T02:08:39;9.50;99.90
54680;DHT22;40578;53.178;5.846;2023-05-29T02:11:04;9.50;99.90
54680;DHT22;40578;53.178;5.846;2023-05-29T02:13:31;9.60;99.90
54680;DHT22;40578;53.178;5.846;2023-05-29T02:15:56;9.60;99.90
54680;DHT22;40578;53.178;5.846;2023-05-29T02:18:22;9.60;99.90
54680;DHT22;40578;53.178;5.846;2023-05-29T02:20:49;9.70;99.90
54680;DHT22;40578;53.178;5.846;2023-05-29T02:23:15;9.70;99.90
54680;DHT22;40578;53.178;5.846;2023-05-29T02:25:41;9.70;99.90
54680;DHT22;40578;53.178;5.846;2023-05-29T02:28:07;9.80;99.90
54680;DHT22;40578;53.178;5.846;2023-05-29T02:30:34;9.90;99.90
54680;DHT22;40578;53.178;5.846;2023-05-29T02:33:00;10.00;99.90
54680;DHT22;40578;53.178;5.846;2023-05-29T02:35:27;10.10;99.90
54680;DHT22;40578;53.178;5.846;2023-05-29T02:37:53;9.90;99.90
54680;DHT22;40578;53.178;5.846;2023-05-29T02:40:19;9.80;99.90
54680;DHT22;40578;53.178;5.846;2023-05-29T02:42:46;9.70;99.90
54680;DHT22;40578;53.178;5.846;2023-05-29T02:45:12;9.70;99.90
54680;DHT22;40578;53.178;5.846;2023-05-29T02:47:37;9.70;99.90
54680;DHT22;40578;53.178;5.846;2023-05-29T02:50:03;9.60;99.90
54680;DHT22;40578;53.178;5.846;2023-05-29T02:52:30;9.60;99.90
54680;DHT22;40578;53.178;5.846;2023-05-29T02:54:56;9.50;99.90
54680;DHT22;40578;53.178;5.846;2023-05-29T02:57:22;9.60;99.90
54680;DHT22;40578;53.178;5.846;2023-05-29T02:59:48;9.50;99.90
54680;DHT22;40578;53.178;5.846;2023-05-29T03:02:14;10.30;99.90
54680;DHT22;40578;53.178;5.846;2023-05-29T03:04:39;9.50;99.90
54680;DHT22;40578;53.178;5.846;2023-05-29T03:07:05;9.60;99.90
54680;DHT22;40578;53.178;5.846;2023-05-29T03:09:32;9.70;99.90
54680;DHT22;40578;53.178;5.846;2023-05-29T03:11:57;9.60;99.90
54680;DHT22;40578;53.178;5.846;2023-05-29T03:14:23;9.70;99.90
54680;DHT22;40578;53.178;5.846;2023-05-29T03:16:49;9.70;99.90
54680;DHT22;40578;53.178;5.846;2023-05-29T03:19:16;9.70;99.90
54680;DHT22;40578;53.178;5.846;2023-05-29T03:21:41;9.70;99.90
54680;DHT22;40578;53.178;5.846;2023-05-29T03:24:07;9.70;99.90
54680;DHT22;40578;53.178;5.846;2023-05-29T03:26:32;9.80;99.90
54680;DHT22;40578;53.178;5.846;2023-05-29T03:28:58;9.80;99.90
54680;DHT22;40578;53.178;5.846;2023-05-29T03:31:24;9.80;99.90
54680;DHT22;40578;53.178;5.846;2023-05-29T03:33:49;9.80;99.90
54680;DHT22;40578;53.178;5.846;2023-05-29T03:36:15;9.80;99.90
54680;DHT22;40578;53.178;5.846;2023-05-29T03:38:43;9.90;99.90
54680;DHT22;40578;53.178;5.846;2023-05-29T03:41:09;9.90;99.90
54680;DHT22;40578;53.178;5.846;2023-05-29T03:43:35;9.90;99.90
54680;DHT22;40578;53.178;5.846;2023-05-29T03:46:01;10.30;99.90
54680;DHT22;40578;53.178;5.846;2023-05-29T03:48:27;9.90;99.90
54680;DHT22;40578;53.178;5.846;2023-05-29T03:50:52;10.00;99.90
54680;DHT22;40578;53.178;5.846;2023-05-29T03:53:18;10.00;99.90
54680;DHT22;40578;53.178;5.846;2023-05-29T03:55:43;10.00;99.90
54680;DHT22;40578;53.178;5.846;2023-05-29T03:58:09;10.20;99.90
54680;DHT22;40578;53.178;5.846;2023-05-29T04:00:38;10.10;99.90
54680;DHT22;40578;53.178;5.846;2023-05-29T04:03:04;10.20;99.90
54680;DHT22;40578;53.178;5.846;2023-05-29T04:05:29;10.20;99.90
54680;DHT22;40578;53.178;5.846;2023-05-29T04:07:56;10.20;99.90
54680;DHT22;40578;53.178;5.846;2023-05-29T04:10:22;10.20;99.90
54680;DHT22;40578;53.178;5.846;2023-05-29T04:12:49;10.20;99.90
54680;DHT22;40578;53.178;5.846;2023-05-29T04:15:14;10.20;99.90
54680;DHT22;40578;53.178;5.846;2023-05-29T04:17:40;10.30;99.90
54680;DHT22;40578;53.178;5.846;2023-05-29T04:20:06;10.30;99.90
54680;DHT22;40578;53.178;5.846;2023-05-29T04:22:37;10.20;99.90
54680;DHT22;40578;53.178;5.846;2023-05-29T04:25:04;10.30;99.90
54680;DHT22;40578;53.178;5.846;2023-05-29T04:27:33;10.30;99.90
54680;DHT22;40578;53.178;5.846;2023-05-29T04:30:06;10.30;99.90
54680;DHT22;40578;53.178;5.846;2023-05-29T04:32:32;10.30;99.90
54680;DHT22;40578;53.178;5.846;2023-05-29T04:34:59;10.30;99.90
54680;DHT22;40578;53.178;5.846;2023-05-29T04:37:28;10.40;99.90
54680;DHT22;40578;53.178;5.846;2023-05-29T04:39:55;10.40;99.90
54680;DHT22;40578;53.178;5.846;2023-05-29T04:42:22;10.50;99.90
54680;DHT22;40578;53.178;5.846;2023-05-29T04:44:48;10.50;99.90
54680;DHT22;40578;53.178;5.846;2023-05-29T04:47:14;10.50;99.90
54680;DHT22;40578;53.178;5.846;2023-05-29T04:49:41;10.50;99.90
54680;DHT22;40578;53.178;5.846;2023-05-29T04:52:07;10.50;99.90
54680;DHT22;40578;53.178;5.846;2023-05-29T04:54:33;10.50;99.90
54680;DHT22;40578;53.178;5.846;2023-05-29T04:57:00;10.50;99.90
54680;DHT22;40578;53.178;5.846;2023-05-29T04:59:26;10.60;99.90
54680;DHT22;40578;53.178;5.846;2023-05-29T05:01:51;10.50;99.90
54680;DHT22;40578;53.178;5.846;2023-05-29T05:04:17;10.50;99.90
54680;DHT22;40578;53.178;5.846;2023-05-29T05:06:43;10.50;99.90
54680;DHT22;40578;53.178;5.846;2023-05-29T05:09:09;12.00;99.90
54680;DHT22;40578;53.178;5.846;2023-05-29T05:11:35;10.50;99.90
54680;DHT22;40578;53.178;5.846;2023-05-29T05:14:01;11.00;99.90
54680;DHT22;40578;53.178;5.846;2023-05-29T05:16:26;10.50;99.90
54680;DHT22;40578;53.178;5.846;2023-05-29T05:18:52;10.50;99.90
54680;DHT22;40578;53.178;5.846;2023-05-29T05:21:17;10.60;99.90
54680;DHT22;40578;53.178;5.846;2023-05-29T05:23:43;10.60;99.90
54680;DHT22;40578;53.178;5.846;2023-05-29T05:26:09;10.60;99.90
54680;DHT22;40578;53.178;5.846;2023-05-29T05:28:37;10.70;99.90
54680;DHT22;40578;53.178;5.846;2023-05-29T05:31:03;11.00;99.90
54680;DHT22;40578;53.178;5.846;2023-05-29T05:33:28;11.00;99.90
54680;DHT22;40578;53.178;5.846;2023-05-29T05:35:54;11.20;99.90
54680;DHT22;40578;53.178;5.846;2023-05-29T05:38:19;11.20;99.90
54680;DHT22;40578;53.178;5.846;2023-05-29T05:40:45;11.10;99.90
54680;DHT22;40578;53.178;5.846;2023-05-29T05:43:11;11.10;99.90
54680;DHT22;40578;53.178;5.846;2023-05-29T05:45:36;11.10;99.90
54680;DHT22;40578;53.178;5.846;2023-05-29T05:48:07;11.20;99.90
54680;DHT22;40578;53.178;5.846;2023-05-29T05:50:33;11.40;99.90
54680;DHT22;40578;53.178;5.846;2023-05-29T05:52:58;11.40;99.90
54680;DHT22;40578;53.178;5.846;2023-05-29T05:55:24;11.70;99.90
54680;DHT22;40578;53.178;5.846;2023-05-29T05:57:51;11.60;99.90
54680;DHT22;40578;53.178;5.846;2023-05-29T06:00:17;11.60;99.90
54680;DHT22;40578;53.178;5.846;2023-05-29T06:02:43;11.50;99.90
54680;DHT22;40578;53.178;5.846;2023-05-29T06:05:10;11.80;99.90
54680;DHT22;40578;53.178;5.846;2023-05-29T06:07:37;11.60;99.90
54680;DHT22;40578;53.178;5.846;2023-05-29T06:10:03;11.50;99.90
54680;DHT22;40578;53.178;5.846;2023-05-29T06:12:29;11.50;99.90
54680;DHT22;40578;53.178;5.846;2023-05-29T06:14:55;11.40;99.90
54680;DHT22;40578;53.178;5.846;2023-05-29T06:17:21;11.40;99.90
54680;DHT22;40578;53.178;5.846;2023-05-29T06:19:47;11.40;99.90
54680;DHT22;40578;53.178;5.846;2023-05-29T06:22:14;11.40;99.90
54680;DHT22;40578;53.178;5.846;2023-05-29T06:24:39;11.30;99.90
54680;DHT22;40578;53.178;5.846;2023-05-29T06:27:05;11.30;99.90
54680;DHT22;40578;53.178;5.846;2023-05-29T06:29:32;11.40;99.90
54680;DHT22;40578;53.178;5.846;2023-05-29T06:31:58;11.40;99.90
54680;DHT22;40578;53.178;5.846;2023-05-29T06:34:23;11.70;99.90
54680;DHT22;40578;53.178;5.846;2023-05-29T06:36:49;11.70;99.90
54680;DHT22;40578;53.178;5.846;2023-05-29T06:39:14;11.80;99.90
54680;DHT22;40578;53.178;5.846;2023-05-29T06:41:40;11.90;99.90
54680;DHT22;40578;53.178;5.846;2023-05-29T06:44:06;11.90;99.90
54680;DHT22;40578;53.178;5.846;2023-05-29T06:46:31;12.20;99.90
54680;DHT22;40578;53.178;5.846;2023-05-29T06:48:57;11.90;99.90
54680;DHT22;40578;53.178;5.846;2023-05-29T06:51:23;11.90;99.90
54680;DHT22;40578;53.178;5.846;2023-05-29T06:53:48;11.90;99.90
54680;DHT22;40578;53.178;5.846;2023-05-29T06:56:14;12.10;99.90
54680;DHT22;40578;53.178;5.846;2023-05-29T06:58:40;11.90;99.90
54680;DHT22;40578;53.178;5.846;2023-05-29T07:01:05;12.00;99.90
54680;DHT22;40578;53.178;5.846;2023-05-29T07:03:31;12.00;99.90
54680;DHT22;40578;53.178;5.846;2023-05-29T07:05:57;12.10;99.90
54680;DHT22;40578;53.178;5.846;2023-05-29T07:08:23;12.00;99.90
54680;DHT22;40578;53.178;5.846;2023-05-29T07:10:49;12.10;99.90
54680;DHT22;40578;53.178;5.846;2023-05-29T07:13:16;12.20;99.90
54680;DHT22;40578;53.178;5.846;2023-05-29T07:15:43;12.40;99.90
54680;DHT22;40578;53.178;5.846;2023-05-29T07:18:09;14.20;99.90
54680;DHT22;40578;53.178;5.846;2023-05-29T07:20:36;12.40;99.90
54680;DHT22;40578;53.178;5.846;2023-05-29T07:23:01;12.30;99.90
54680;DHT22;40578;53.178;5.846;2023-05-29T07:25:27;12.30;99.90
54680;DHT22;40578;53.178;5.846;2023-05-29T07:27:53;12.40;99.90
54680;DHT22;40578;53.178;5.846;2023-05-29T07:30:19;12.30;99.90
54680;DHT22;40578;53.178;5.846;2023-05-29T07:32:44;12.30;99.90
54680;DHT22;40578;53.178;5.846;2023-05-29T07:35:11;12.30;99.90
54680;DHT22;40578;53.178;5.846;2023-05-29T07:37:36;12.40;99.90
54680;DHT22;40578;53.178;5.846;2023-05-29T07:40:02;12.70;99.90
54680;DHT22;40578;53.178;5.846;2023-05-29T07:42:31;12.40;99.90
54680;DHT22;40578;53.178;5.846;2023-05-29T07:44:58;12.50;99.90
54680;DHT22;40578;53.178;5.846;2023-05-29T07:47:24;12.70;99.90
54680;DHT22;40578;53.178;5.846;2023-05-29T07:49:50;12.80;99.90
54680;DHT22;40578;53.178;5.846;2023-05-29T07:52:17;12.80;99.90
54680;DHT22;40578;53.178;5.846;2023-05-29T07:54:43;12.80;99.90
54680;DHT22;40578;53.178;5.846;2023-05-29T07:57:09;12.70;99.90
54680;DHT22;40578;53.178;5.846;2023-05-29T07:59:36;12.60;99.90
54680;DHT22;40578;53.178;5.846;2023-05-29T08:02:02;13.20;99.90
54680;DHT22;40578;53.178;5.846;2023-05-29T08:04:29;12.80;99.90
54680;DHT22;40578;53.178;5.846;2023-05-29T08:06:55;12.80;99.90
54680;DHT22;40578;53.178;5.846;2023-05-29T08:09:21;12.90;99.90
54680;DHT22;40578;53.178;5.846;2023-05-29T08:11:46;12.80;99.90
54680;DHT22;40578;53.178;5.846;2023-05-29T08:14:14;13.00;99.90
54680;DHT22;40578;53.178;5.846;2023-05-29T08:16:41;13.20;99.90
54680;DHT22;40578;53.178;5.846;2023-05-29T08:19:07;13.20;99.90
54680;DHT22;40578;53.178;5.846;2023-05-29T08:21:32;13.20;99.90
54680;DHT22;40578;53.178;5.846;2023-05-29T08:23:59;13.20;99.90
54680;DHT22;40578;53.178;5.846;2023-05-29T08:26:26;13.10;99.90
54680;DHT22;40578;53.178;5.846;2023-05-29T08:28:52;13.40;99.90
54680;DHT22;40578;53.178;5.846;2023-05-29T08:31:17;13.10;99.90
54680;DHT22;40578;53.178;5.846;2023-05-29T08:33:43;13.10;99.90
54680;DHT22;40578;53.178;5.846;2023-05-29T08:36:09;13.30;99.90
54680;DHT22;40578;53.178;5.846;2023-05-29T08:38:36;13.30;99.90
54680;DHT22;40578;53.178;5.846;2023-05-29T08:41:04;13.30;99.90
54680;DHT22;40578;53.178;5.846;2023-05-29T08:43:32;13.40;99.90
54680;DHT22;40578;53.178;5.846;2023-05-29T08:46:02;13.50;99.90
54680;DHT22;40578;53.178;5.846;2023-05-29T08:48:29;13.60;99.90
54680;DHT22;40578;53.178;5.846;2023-05-29T08:50:57;13.60;99.90
54680;DHT22;40578;53.178;5.846;2023-05-29T08:53:24;13.40;99.90
54680;DHT22;40578;53.178;5.846;2023-05-29T08:55:51;13.50;99.90
54680;DHT22;40578;53.178;5.846;2023-05-29T08:58:20;13.50;99.90
54680;DHT22;40578;53.178;5.846;2023-05-29T09:00:47;13.50;99.90
54680;DHT22;40578;53.178;5.846;2023-05-29T09:03:13;13.50;99.90
54680;DHT22;40578;53.178;5.846;2023-05-29T09:05:39;13.50;99.90
54680;DHT22;40578;53.178;5.846;2023-05-29T09:08:09;13.30;99.90
54680;DHT22;40578;53.178;5.846;2023-05-29T09:10:36;13.40;99.90
54680;DHT22;40578;53.178;5.846;2023-05-29T09:13:02;13.50;99.90
54680;DHT22;40578;53.178;5.846;2023-05-29T09:15:28;13.60;99.90
54680;DHT22;40578;53.178;5.846;2023-05-29T09:17:55;13.60;99.90
54680;DHT22;40578;53.178;5.846;2023-05-29T09:20:22;13.50;99.90
54680;DHT22;40578;53.178;5.846;2023-05-29T09:23:08;13.40;99.90
54680;DHT22;40578;53.178;5.846;2023-05-29T09:25:41;13.40;99.90
54680;DHT22;40578;53.178;5.846;2023-05-29T09:28:10;13.40;99.90
54680;DHT22;40578;53.178;5.846;2023-05-29T09:33:07;13.30;99.90
54680;DHT22;40578;53.178;5.846;2023-05-29T09:35:38;13.30;99.90
54680;DHT22;40578;53.178;5.846;2023-05-29T09:38:05;13.30;99.90
54680;DHT22;40578;53.178;5.846;2023-05-29T09:40:41;13.30;99.90
54680;DHT22;40578;53.178;5.846;2023-05-29T09:43:17;13.30;99.90
54680;DHT22;40578;53.178;5.846;2023-05-29T09:45:49;13.30;99.90
54680;DHT22;40578;53.178;5.846;2023-05-29T09:48:22;13.50;99.90
54680;DHT22;40578;53.178;5.846;2023-05-29T09:50:48;13.60;99.90
54680;DHT22;40578;53.178;5.846;2023-05-29T09:53:24;13.60;99.90
54680;DHT22;40578;53.178;5.846;2023-05-29T09:55:56;13.60;99.90
54680;DHT22;40578;53.178;5.846;2023-05-29T09:58:42;14.60;99.90
54680;DHT22;40578;53.178;5.846;2023-05-29T10:01:15;13.50;99.90
54680;DHT22;40578;53.178;5.846;2023-05-29T10:03:43;13.70;99.90
54680;DHT22;40578;53.178;5.846;2023-05-29T10:06:18;13.60;99.90
54680;DHT22;40578;53.178;5.846;2023-05-29T10:08:46;13.90;99.90
54680;DHT22;40578;53.178;5.846;2023-05-29T10:11:18;13.70;99.90
54680;DHT22;40578;53.178;5.846;2023-05-29T10:13:51;13.70;99.90
54680;DHT22;40578;53.178;5.846;2023-05-29T10:16:21;14.00;99.90
54680;DHT22;40578;53.178;5.846;2023-05-29T10:18:53;14.30;99.90
54680;DHT22;40578;53.178;5.846;2023-05-29T10:21:25;13.70;99.90
54680;DHT22;40578;53.178;5.846;2023-05-29T10:23:52;13.70;99.90
54680;DHT22;40578;53.178;5.846;2023-05-29T10:26:24;13.80;99.90
54680;DHT22;40578;53.178;5.846;2023-05-29T10:29:17;13.90;99.90
54680;DHT22;40578;53.178;5.846;2023-05-29T10:40:06;13.90;99.90
54680;DHT22;40578;53.178;5.846;2023-05-29T10:45:08;14.20;99.90
54680;DHT22;40578;53.178;5.846;2023-05-29T10:47:34;14.10;99.90
54680;DHT22;40578;53.178;5.846;2023-05-29T10:50:00;14.10;99.90
54680;DHT22;40578;53.178;5.846;2023-05-29T10:52:26;14.30;99.90
54680;DHT22;40578;53.178;5.846;2023-05-29T10:54:55;14.30;99.90
54680;DHT22;40578;53.178;5.846;2023-05-29T10:57:23;14.30;99.90
54680;DHT22;40578;53.178;5.846;2023-05-29T11:00:06;14.40;99.90
54680;DHT22;40578;53.178;5.846;2023-05-29T11:02:39;14.50;99.90
54680;DHT22;40578;53.178;5.846;2023-05-29T11:05:19;14.60;99.90
54680;DHT22;40578;53.178;5.846;2023-05-29T11:08:12;14.60;99.90
54680;DHT22;40578;53.178;5.846;2023-05-29T11:13:24;14.60;99.90
54680;DHT22;40578;53.178;5.846;2023-05-29T11:18:45;14.60;99.90
54680;DHT22;40578;53.178;5.846;2023-05-29T11:24:26;14.60;99.90
54680;DHT22;40578;53.178;5.846;2023-05-29T11:26:56;15.00;99.90
54680;DHT22;40578;53.178;5.846;2023-05-29T11:29:29;14.70;99.90
54680;DHT22;40578;53.178;5.846;2023-05-29T11:32:02;14.80;99.90
54680;DHT22;40578;53.178;5.846;2023-05-29T11:34:29;14.60;99.90
54680;DHT22;40578;53.178;5.846;2023-05-29T11:37:01;14.60;99.90
54680;DHT22;40578;53.178;5.846;2023-05-29T11:39:27;14.60;99.90
54680;DHT22;40578;53.178;5.846;2023-05-29T11:41:54;14.60;99.90
54680;DHT22;40578;53.178;5.846;2023-05-29T11:44:20;14.60;99.90
54680;DHT22;40578;53.178;5.846;2023-05-29T11:47:02;14.80;99.90
54680;DHT22;40578;53.178;5.846;2023-05-29T11:49:33;14.70;99.90
54680;DHT22;40578;53.178;5.846;2023-05-29T11:52:09;14.90;99.90
54680;DHT22;40578;53.178;5.846;2023-05-29T11:54:36;14.80;99.90
54680;DHT22;40578;53.178;5.846;2023-05-29T11:57:02;14.90;99.90
54680;DHT22;40578;53.178;5.846;2023-05-29T11:59:31;14.90;99.90
54680;DHT22;40578;53.178;5.846;2023-05-29T12:01:56;14.90;99.90
54680;DHT22;40578;53.178;5.846;2023-05-29T12:04:22;14.90;99.90
54680;DHT22;40578;53.178;5.846;2023-05-29T12:06:48;15.10;99.90
54680;DHT22;40578;53.178;5.846;2023-05-29T12:09:24;15.20;99.90
54680;DHT22;40578;53.178;5.846;2023-05-29T12:11:50;15.30;99.90
54680;DHT22;40578;53.178;5.846;2023-05-29T12:14:16;15.30;99.90
54680;DHT22;40578;53.178;5.846;2023-05-29T12:16:42;15.30;99.90
54680;DHT22;40578;53.178;5.846;2023-05-29T12:19:07;15.10;99.90
54680;DHT22;40578;53.178;5.846;2023-05-29T12:21:33;15.40;99.90
54680;DHT22;40578;53.178;5.846;2023-05-29T12:24:00;15.10;99.90
54680;DHT22;40578;53.178;5.846;2023-05-29T12:26:26;15.90;99.90
54680;DHT22;40578;53.178;5.846;2023-05-29T12:28:52;15.10;99.90
54680;DHT22;40578;53.178;5.846;2023-05-29T12:31:28;15.10;99.90
54680;DHT22;40578;53.178;5.846;2023-05-29T12:34:01;15.30;99.90
54680;DHT22;40578;53.178;5.846;2023-05-29T12:36:27;15.30;99.90
54680;DHT22;40578;53.178;5.846;2023-05-29T12:38:52;15.30;99.90
54680;DHT22;40578;53.178;5.846;2023-05-29T12:41:29;15.40;99.90
54680;DHT22;40578;53.178;5.846;2023-05-29T12:43:57;15.50;99.90
54680;DHT22;40578;53.178;5.846;2023-05-29T12:46:26;15.50;99.90
54680;DHT22;40578;53.178;5.846;2023-05-29T12:48:54;15.60;99.90
54680;DHT22;40578;53.178;5.846;2023-05-29T12:51:26;15.50;99.90
54680;DHT22;40578;53.178;5.846;2023-05-29T12:53:52;15.40;99.90
54680;DHT22;40578;53.178;5.846;2023-05-29T12:56:21;15.50;99.90
54680;DHT22;40578;53.178;5.846;2023-05-29T12:58:49;15.30;99.90
54680;DHT22;40578;53.178;5.846;2023-05-29T13:01:15;15.20;99.90
54680;DHT22;40578;53.178;5.846;2023-05-29T13:03:41;15.30;99.90
54680;DHT22;40578;53.178;5.846;2023-05-29T13:06:07;15.40;99.90
54680;DHT22;40578;53.178;5.846;2023-05-29T13:08:33;15.40;99.90
54680;DHT22;40578;53.178;5.846;2023-05-29T13:10:59;15.40;99.90
54680;DHT22;40578;53.178;5.846;2023-05-29T13:13:24;15.20;99.90
54680;DHT22;40578;53.178;5.846;2023-05-29T13:15:50;15.50;99.90
54680;DHT22;40578;53.178;5.846;2023-05-29T13:18:15;15.20;99.90
54680;DHT22;40578;53.178;5.846;2023-05-29T13:20:41;15.20;99.90
54680;DHT22;40578;53.178;5.846;2023-05-29T13:23:07;15.20;99.90
54680;DHT22;40578;53.178;5.846;2023-05-29T13:25:34;15.50;99.90
54680;DHT22;40578;53.178;5.846;2023-05-29T13:28:00;15.60;99.90
54680;DHT22;40578;53.178;5.846;2023-05-29T13:30:25;15.60;99.90
54680;DHT22;40578;53.178;5.846;2023-05-29T13:32:52;15.70;99.90
54680;DHT22;40578;53.178;5.846;2023-05-29T13:35:19;15.50;99.90
54680;DHT22;40578;53.178;5.846;2023-05-29T13:37:44;15.50;99.90
54680;DHT22;40578;53.178;5.846;2023-05-29T13:40:11;15.40;99.90
54680;DHT22;40578;53.178;5.846;2023-05-29T13:42:39;15.50;99.90
54680;DHT22;40578;53.178;5.846;2023-05-29T13:45:05;15.30;99.90
54680;DHT22;40578;53.178;5.846;2023-05-29T13:47:32;15.40;99.90
54680;DHT22;40578;53.178;5.846;2023-05-29T13:49:58;15.50;99.90
54680;DHT22;40578;53.178;5.846;2023-05-29T13:52:25;15.50;99.90
54680;DHT22;40578;53.178;5.846;2023-05-29T13:54:51;15.60;99.90
54680;DHT22;40578;53.178;5.846;2023-05-29T13:57:17;15.60;99.90
54680;DHT22;40578;53.178;5.846;2023-05-29T13:59:42;15.60;99.90
54680;DHT22;40578;53.178;5.846;2023-05-29T14:02:08;15.70;99.90
54680;DHT22;40578;53.178;5.846;2023-05-29T14:04:34;15.80;99.90
54680;DHT22;40578;53.178;5.846;2023-05-29T14:07:00;15.60;99.90
54680;DHT22;40578;53.178;5.846;2023-05-29T14:09:25;15.80;99.90
54680;DHT22;40578;53.178;5.846;2023-05-29T14:12:00;15.70;99.90
54680;DHT22;40578;53.178;5.846;2023-05-29T14:14:27;15.80;99.90
54680;DHT22;40578;53.178;5.846;2023-05-29T14:16:53;15.80;99.90
54680;DHT22;40578;53.178;5.846;2023-05-29T14:19:20;15.60;99.90
54680;DHT22;40578;53.178;5.846;2023-05-29T14:21:46;15.50;99.90
54680;DHT22;40578;53.178;5.846;2023-05-29T14:24:12;15.40;99.90
54680;DHT22;40578;53.178;5.846;2023-05-29T14:26:38;15.50;99.90
54680;DHT22;40578;53.178;5.846;2023-05-29T14:29:04;15.50;99.90
54680;DHT22;40578;53.178;5.846;2023-05-29T14:31:30;15.50;99.90
54680;DHT22;40578;53.178;5.846;2023-05-29T14:33:56;15.50;99.90
54680;DHT22;40578;53.178;5.846;2023-05-29T14:36:21;15.40;99.90
54680;DHT22;40578;53.178;5.846;2023-05-29T14:38:47;15.50;99.90
54680;DHT22;40578;53.178;5.846;2023-05-29T14:41:14;15.50;99.90
54680;DHT22;40578;53.178;5.846;2023-05-29T14:43:41;15.50;99.90
54680;DHT22;40578;53.178;5.846;2023-05-29T14:46:08;15.40;99.90
54680;DHT22;40578;53.178;5.846;2023-05-29T14:48:33;15.70;99.90
54680;DHT22;40578;53.178;5.846;2023-05-29T14:50:59;15.70;99.90
54680;DHT22;40578;53.178;5.846;2023-05-29T14:53:25;15.50;99.90
54680;DHT22;40578;53.178;5.846;2023-05-29T14:55:50;15.70;99.90
54680;DHT22;40578;53.178;5.846;2023-05-29T14:58:16;15.80;99.90
54680;DHT22;40578;53.178;5.846;2023-05-29T15:00:42;15.80;99.90
54680;DHT22;40578;53.178;5.846;2023-05-29T15:03:07;15.80;99.90
54680;DHT22;40578;53.178;5.846;2023-05-29T15:05:33;15.90;99.90
54680;DHT22;40578;53.178;5.846;2023-05-29T15:07:59;15.90;99.90
54680;DHT22;40578;53.178;5.846;2023-05-29T15:10:26;15.80;99.90
54680;DHT22;40578;53.178;5.846;2023-05-29T15:12:53;15.60;99.90
54680;DHT22;40578;53.178;5.846;2023-05-29T15:15:28;15.40;99.90
54680;DHT22;40578;53.178;5.846;2023-05-29T15:17:54;15.40;99.90
54680;DHT22;40578;53.178;5.846;2023-05-29T15:20:23;15.50;99.90
54680;DHT22;40578;53.178;5.846;2023-05-29T15:22:49;15.30;99.90
54680;DHT22;40578;53.178;5.846;2023-05-29T15:25:16;15.50;99.90
54680;DHT22;40578;53.178;5.846;2023-05-29T15:27:42;16.40;99.90
54680;DHT22;40578;53.178;5.846;2023-05-29T15:30:16;15.60;99.90
54680;DHT22;40578;53.178;5.846;2023-05-29T15:32:43;15.60;99.90
54680;DHT22;40578;53.178;5.846;2023-05-29T15:35:10;15.60;99.90
54680;DHT22;40578;53.178;5.846;2023-05-29T15:37:36;15.80;99.90
54680;DHT22;40578;53.178;5.846;2023-05-29T15:40:02;15.60;99.90
54680;DHT22;40578;53.178;5.846;2023-05-29T15:42:28;15.50;99.90
54680;DHT22;40578;53.178;5.846;2023-05-29T15:44:53;15.40;99.90
54680;DHT22;40578;53.178;5.846;2023-05-29T15:47:19;15.20;99.90
54680;DHT22;40578;53.178;5.846;2023-05-29T15:49:45;15.20;99.90
54680;DHT22;40578;53.178;5.846;2023-05-29T15:52:10;15.30;99.90
54680;DHT22;40578;53.178;5.846;2023-05-29T15:54:36;15.40;99.90
54680;DHT22;40578;53.178;5.846;2023-05-29T15:57:01;15.60;99.90
54680;DHT22;40578;53.178;5.846;2023-05-29T15:59:28;15.70;99.90
54680;DHT22;40578;53.178;5.846;2023-05-29T16:01:54;15.70;99.90
54680;DHT22;40578;53.178;5.846;2023-05-29T16:04:20;15.50;99.90